• Join FlightAware (Why Join?)
  • Login
  • US Flag GB Flag 
03:25 EDT


 

Airport Tracker/Info


-or-


 

Live Flight TrackerFlight Track Log ✈ AWE1693 ✈ 27-Apr-2013 ✈ KALB - KCLT

Flight Track Log - Related Links

Times and Time Zones

All times are in EDT time to prevent confusion due to time zone crossing. See the AWE1693 flight status page for this flight to view local times or setup timezone preferences in your user account.

Time Position Orientation Groundspeed Altitude Reporting Facility
EDT Latitude Longitude Course Direction KTS MPH feet Rate Location/Type
08:28 42.7631 -73.8089 169° South 148 170 1,400  Level Boston Center
08:29 42.7903 -73.8094 359° North 157 181 2,400 1,920 Climbing Boston Center
08:30 42.8439 -73.8558 328° Northwest 239 275 4,600 2,520 Climbing Boston Center
08:31 42.5160 -74.0551 171° South  Level Estimated
08:31 42.8769 -73.8822 330° Northwest 231 266 6,900  Level Boston Center
08:32 42.4382 -74.1391 180° South  Level Estimated
08:32 42.9344 -73.9347 326° Northwest 231 266 9,900  Level Boston Center
08:33 42.3603 -74.2228 170° South  Level Estimated
08:33 42.9650 -74.0006 302° West 226 260 11,900  Level Boston Center
08:34 42.2824 -74.3064 169° South  Level Estimated
08:34 42.9842 -74.1061 284° West 250 288 14,300  Level Boston Center
08:35 42.9767 -74.1994 264° West 286 329 16,100 1,500 Climbing Boston Center
08:36 42.8828 -74.1997 180° South 247 284 17,400 900 Climbing Boston Center
08:37 42.7897 -74.1489 158° South 288 331 18,000 360 Climbing Boston Center
08:38 42.6614 -74.1031 165° South 379 436 18,200 840 Climbing Boston Center
08:39 42.5367 -74.0772 171° South 422 486 19,700 1,320 Climbing Boston Center
08:40 42.4078 -74.0514 172° South 456 525 20,900 1,140 Climbing Boston Center
08:41 42.2767 -74.0256 172° South 472 543 22,000 840 Climbing Boston Center
08:42 42.1292 -73.9964 172° South 493 567 23,000 900 Climbing Boston Center
08:43 41.9669 -73.9647 172° South 498 573 24,300 1,020 Climbing Boston Center
08:44 41.8319 -73.9364 171° South 498 573 25,100 1,260 Climbing Boston Center
08:45 41.6886 -73.9050 171° South 498 573 26,900 2,100 Climbing Boston Center
08:46 41.5617 -73.8772 171° South 487 560 29,400 2,040 Climbing Boston Center
08:47 41.4897 -73.8647 173° South 478 550 30,300 1,500 Climbing New York Center
08:48 41.3761 -73.9064 195° South 438 504 31,800 1,200 Climbing New York Center
08:49 41.2803 -73.9903 213° Southwest 417 480 32,700 1,020 Climbing New York Center
08:50 41.1861 -74.0739 214° Southwest 417 480 34,000 1,080 Climbing New York Center
08:51 41.0922 -74.1547 213° Southwest 422 486 34,900 720 Climbing New York Center
08:52 40.9900 -74.2319 210° Southwest 416 479 35,500 420 Climbing New York Center
08:53 40.8917 -74.3147 212° Southwest 421 484 35,800 240 Climbing New York Center
08:54 40.7953 -74.4058 216° Southwest 426 490 36,000 60 Climbing New York Center
08:55 40.7144 -74.5219 227° Southwest 426 490 36,000  Level New York Center
08:56 40.6461 -74.6383 232° Southwest 440 506 36,000  Level New York Center
08:57 40.5714 -74.7600 231° Southwest 447 514 36,000  Level New York Center
08:58 40.4881 -74.8753 226° Southwest 447 514 36,000  Level New York Center
08:59 40.4069 -74.9931 228° Southwest 442 509 36,000  Level New York Center
09:00 40.3233 -75.1103 227° Southwest 442 509 36,000  Level New York Center
09:01 40.2397 -75.2275 227° Southwest 442 509 36,000  Level New York Center
09:02 40.1606 -75.3419 228° Southwest 442 509 36,000  Level New York Center
09:03 40.0767 -75.4586 227° Southwest 448 516 36,000  Level New York Center
09:04 39.9928 -75.5722 226° Southwest 448 516 36,000  Level New York Center
09:05 39.9089 -75.6908 227° Southwest 453 521 36,000  Level New York Center
09:06 39.8350 -75.8100 231° Southwest 448 516 36,000  Level New York Center
09:07 39.7589 -75.9314 231° Southwest 443 510 36,000  Level New York Center
09:08 39.6186 -76.1492 230° Southwest 428 493 36,000  Level Washington Center
09:09 39.5431 -76.2669 230° Southwest 428 493 36,000  Level Washington Center
09:10 39.4672 -76.3844 230° Southwest 428 493 36,000  Level Washington Center
09:11 39.3933 -76.5019 231° Southwest 428 493 36,000  Level Washington Center
09:12 39.3050 -76.6322 229° Southwest 428 493 36,000  Level Washington Center
09:13 39.2289 -76.7517 231° Southwest 428 493 36,000  Level Washington Center
09:14 39.1547 -76.8683 231° Southwest 428 493 36,000  Level Washington Center
09:15 39.0803 -76.9875 231° Southwest 428 493 36,000  Level Washington Center
09:16 38.9914 -77.0978 224° Southwest 428 493 36,000  Level Washington Center
09:17 38.8986 -77.1972 220° Southwest 433 498 36,000  Level Washington Center
09:18 38.8075 -77.2967 220° Southwest 438 504 36,000  Level Washington Center
09:19 38.7144 -77.3956 220° Southwest 438 504 36,000  Level Washington Center
09:20 38.6336 -77.4867 221° Southwest 438 504 36,000  Level Washington Center
09:21 38.5444 -77.5853 221° Southwest 438 504 36,000  Level Washington Center
09:22 38.4533 -77.6836 220° Southwest 438 504 36,000  Level Washington Center
09:23 38.3639 -77.7817 221° Southwest 438 504 36,000  Level Washington Center
09:24 38.2744 -77.8769 220° Southwest 438 504 36,000  Level Washington Center
09:25 38.1831 -77.9772 221° Southwest 438 504 36,000  Level Washington Center
09:26 38.0914 -78.0717 219° Southwest 438 504 36,000  Level Washington Center
09:27 38.0039 -78.1664 220° Southwest 438 504 36,000  Level Washington Center
09:28 37.9261 -78.2903 232° Southwest 421 484 36,000  Level Washington Center
09:29 37.8486 -78.3953 227° Southwest 416 479 36,000  Level Washington Center
09:30 37.7731 -78.5053 229° Southwest 416 479 36,000 -960 Level Washington Center
09:31 37.6972 -78.6153 229° Southwest 421 484 34,200 -1,020 Descending Washington Center
09:32 37.6258 -78.7147 228° Southwest 427 491 34,000 -120 Descending Washington Center
09:33 37.5478 -78.8242 228° Southwest 427 491 34,000 -360 Level Washington Center
09:34 37.4719 -78.9283 227° Southwest 427 491 33,300 -900 Descending Washington Center
09:35 37.3958 -79.0400 229° Southwest 427 491 32,300 -660 Descending Washington Center
09:36 37.3072 -79.1431 223° Southwest 427 491 32,000 -180 Descending Washington Center
09:37 37.1936 -79.2419 215° Southwest 451 519 32,000 -180 Level Washington Center
09:38 37.0908 -79.3308 215° Southwest 456 525 31,700 -660 Descending Washington Center
09:39 36.9900 -79.4222 216° Southwest 456 525 30,800 -1,020 Descending Washington Center
09:40 36.8911 -79.5081 215° Southwest 451 519 29,800 -960 Descending Washington Center
09:41 36.7922 -79.5939 215° Southwest 446 513 28,900 -960 Descending Washington Center
09:42 36.7083 -79.6675 215° Southwest 433 498 27,900 -960 Descending Washington Center
09:43 36.6139 -79.7478 214° Southwest 433 498 27,000 -960 Descending Washington Center
09:44 36.5444 -79.8086 215° Southwest 428 493 26,400 -1,200 Descending Atlanta Center
09:45 36.4469 -79.8886 213° Southwest 433 498 25,100 -1,800 Descending Atlanta Center
09:46 36.3558 -79.9681 215° Southwest 428 493 22,800 -1,560 Descending Atlanta Center
09:47 36.2622 -80.0450 214° Southwest 415 478 22,000 -1,020 Descending Atlanta Center
09:48 36.1692 -80.1292 216° Southwest 415 478 20,800 -1,560 Descending Atlanta Center
09:49 36.0919 -80.1922 213° Southwest 403 464 18,900 -1,680 Descending Atlanta Center
09:50 36.0064 -80.2631 214° Southwest 392 451 17,500 -1,800 Descending Atlanta Center
09:51 35.9272 -80.3358 217° Southwest 376 433 15,300 -2,100 Descending Atlanta Center
09:52 35.8706 -80.3872 216° Southwest 353 406 14,100 -1,620 Descending Atlanta Center
09:52 35.8458 -80.4036 208° Southwest 369 425 13,700 -1,140 Descending Atlanta Center
09:53 35.7889 -80.4547 216° Southwest 347 399 13,000 -720 Descending Atlanta Center
09:53 35.7708 -80.4708 216° Southwest 350 403 13,000 -1,020 Level Atlanta Center
09:54 35.7178 -80.5167 215° Southwest 291 335 12,000 -1,320 Descending Atlanta Center
09:54 35.6992 -80.5200 188° South 313 360 11,700 -1,620 Descending Atlanta Center
09:55 35.6394 -80.5533 204° Southwest 285 328 10,400 -1,920 Descending Atlanta Center
09:55 35.6147 -80.5619 196° South 298 343 9,800 -2,220 Descending Atlanta Center
09:56 35.5675 -80.5894 205° Southwest 284 327 8,200 -2,100 Descending Atlanta Center
09:56 35.5447 -80.5981 197° South 288 331 7,700 -1,560 Descending Atlanta Center
09:57 35.4978 -80.6256 205° Southwest 275 316 6,600 -1,500 Descending Atlanta Center
09:57 35.4750 -80.6367 202° Southwest 288 331 6,200 -600 Descending Atlanta Center
09:58 35.4258 -80.6644 205° Southwest 260 299 6,000 -240 Descending Atlanta Center
09:58 35.4114 -80.6725 204° Southwest 274 315 6,000 -540 Level Atlanta Center
09:59 35.3811 -80.7144 228° Southwest 210 242 5,500 -960 Descending Atlanta Center
10:00 35.3431 -80.7669 228° Southwest 204 235 4,300 -1,140 Descending Atlanta Center
10:01 35.3067 -80.8169 228° Southwest 186 214 3,300 -1,020 Descending Atlanta Center